sensor_id;sensor_type;location;lat;lon;timestamp;temperature;humidity
47514;DHT22;33951;51.988;5.910;2023-02-01T05:01:32;5.90;99.90
47514;DHT22;33951;51.988;5.910;2023-02-01T05:06:57;6.00;99.90
47514;DHT22;33951;51.988;5.910;2023-02-01T05:09:31;6.00;99.90
47514;DHT22;33951;51.988;5.910;2023-02-01T05:12:03;6.10;99.90
47514;DHT22;33951;51.988;5.910;2023-02-01T05:14:47;6.10;99.90
47514;DHT22;33951;51.988;5.910;2023-02-01T05:17:16;6.20;99.90
47514;DHT22;33951;51.988;5.910;2023-02-01T05:22:43;6.30;99.90
47514;DHT22;33951;51.988;5.910;2023-02-01T05:25:14;6.30;99.90
47514;DHT22;33951;51.988;5.910;2023-02-01T05:27:48;6.30;99.90
47514;DHT22;33951;51.988;5.910;2023-02-01T05:30:31;6.30;99.90
47514;DHT22;33951;51.988;5.910;2023-02-01T05:32:58;6.40;99.90
47514;DHT22;33951;51.988;5.910;2023-02-01T05:35:35;6.40;99.90
47514;DHT22;33951;51.988;5.910;2023-02-01T05:38:23;6.50;99.90
47514;DHT22;33951;51.988;5.910;2023-02-01T05:41:06;6.40;99.90
47514;DHT22;33951;51.988;5.910;2023-02-01T05:43:37;6.40;99.90
47514;DHT22;33951;51.988;5.910;2023-02-01T05:46:09;6.40;99.90
47514;DHT22;33951;51.988;5.910;2023-02-01T05:49:04;6.40;99.90
47514;DHT22;33951;51.988;5.910;2023-02-01T05:51:58;6.50;99.90
47514;DHT22;33951;51.988;5.910;2023-02-01T05:54:26;6.50;99.90
47514;DHT22;33951;51.988;5.910;2023-02-01T05:56:57;6.50;99.90
47514;DHT22;33951;51.988;5.910;2023-02-01T05:59:27;6.40;99.90
47514;DHT22;33951;51.988;5.910;2023-02-01T06:02:01;6.40;99.90
47514;DHT22;33951;51.988;5.910;2023-02-01T06:04:56;6.50;99.90
47514;DHT22;33951;51.988;5.910;2023-02-01T06:07:41;6.40;99.90
47514;DHT22;33951;51.988;5.910;2023-02-01T06:10:12;6.50;99.90
47514;DHT22;33951;51.988;5.910;2023-02-01T06:12:49;6.40;99.90
47514;DHT22;33951;51.988;5.910;2023-02-01T06:15:27;6.40;99.90
47514;DHT22;33951;51.988;5.910;2023-02-01T06:17:53;6.40;99.90
47514;DHT22;33951;51.988;5.910;2023-02-01T06:20:23;6.40;99.90
47514;DHT22;33951;51.988;5.910;2023-02-01T06:22:52;6.50;99.90
47514;DHT22;33951;51.988;5.910;2023-02-01T06:25:20;6.50;99.90
47514;DHT22;33951;51.988;5.910;2023-02-01T06:28:14;6.50;99.90
47514;DHT22;33951;51.988;5.910;2023-02-01T06:30:40;6.50;99.90
47514;DHT22;33951;51.988;5.910;2023-02-01T06:33:14;6.50;99.90
47514;DHT22;33951;51.988;5.910;2023-02-01T06:35:43;6.50;99.90
47514;DHT22;33951;51.988;5.910;2023-02-01T06:38:15;6.50;99.90
47514;DHT22;33951;51.988;5.910;2023-02-01T06:40:46;6.50;99.90
47514;DHT22;33951;51.988;5.910;2023-02-01T06:43:23;6.50;99.90
47514;DHT22;33951;51.988;5.910;2023-02-01T06:46:01;6.50;99.90
47514;DHT22;33951;51.988;5.910;2023-02-01T06:48:33;6.50;99.90
47514;DHT22;33951;51.988;5.910;2023-02-01T06:51:01;6.50;99.90
47514;DHT22;33951;51.988;5.910;2023-02-01T06:53:35;6.50;99.90
47514;DHT22;33951;51.988;5.910;2023-02-01T06:56:11;6.50;99.90
47514;DHT22;33951;51.988;5.910;2023-02-01T06:58:37;6.50;99.90
47514;DHT22;33951;51.988;5.910;2023-02-01T07:01:10;6.50;99.90
47514;DHT22;33951;51.988;5.910;2023-02-01T07:03:39;6.60;99.90
47514;DHT22;33951;51.988;5.910;2023-02-01T07:06:07;6.50;99.90
47514;DHT22;33951;51.988;5.910;2023-02-01T07:08:40;6.50;99.90
47514;DHT22;33951;51.988;5.910;2023-02-01T07:11:11;6.50;99.90
47514;DHT22;33951;51.988;5.910;2023-02-01T07:13:40;6.50;99.90
47514;DHT22;33951;51.988;5.910;2023-02-01T07:16:10;6.50;99.90
47514;DHT22;33951;51.988;5.910;2023-02-01T07:18:41;6.50;99.90
47514;DHT22;33951;51.988;5.910;2023-02-01T07:21:07;6.50;99.90
47514;DHT22;33951;51.988;5.910;2023-02-01T07:23:35;6.50;99.90
47514;DHT22;33951;51.988;5.910;2023-02-01T07:26:07;6.40;99.90
47514;DHT22;33951;51.988;5.910;2023-02-01T07:28:38;6.40;99.90
47514;DHT22;33951;51.988;5.910;2023-02-01T07:31:18;6.40;99.90
47514;DHT22;33951;51.988;5.910;2023-02-01T07:33:51;6.40;99.90
47514;DHT22;33951;51.988;5.910;2023-02-01T07:36:27;6.30;99.90
47514;DHT22;33951;51.988;5.910;2023-02-01T07:38:55;6.30;99.90
47514;DHT22;33951;51.988;5.910;2023-02-01T07:41:31;6.30;99.90
47514;DHT22;33951;51.988;5.910;2023-02-01T07:44:21;6.30;99.90
47514;DHT22;33951;51.988;5.910;2023-02-01T07:46:54;6.20;99.90
47514;DHT22;33951;51.988;5.910;2023-02-01T07:49:27;6.20;99.90
47514;DHT22;33951;51.988;5.910;2023-02-01T07:52:13;6.20;99.90
47514;DHT22;33951;51.988;5.910;2023-02-01T07:54:41;6.20;99.90
47514;DHT22;33951;51.988;5.910;2023-02-01T07:57:12;6.20;99.90
47514;DHT22;33951;51.988;5.910;2023-02-01T07:59:47;6.20;99.90
47514;DHT22;33951;51.988;5.910;2023-02-01T08:02:36;6.20;99.90
47514;DHT22;33951;51.988;5.910;2023-02-01T08:05:13;6.20;99.90
47514;DHT22;33951;51.988;5.910;2023-02-01T08:07:41;6.20;99.90
47514;DHT22;33951;51.988;5.910;2023-02-01T08:10:16;6.20;99.90
47514;DHT22;33951;51.988;5.910;2023-02-01T08:12:44;6.30;99.90
47514;DHT22;33951;51.988;5.910;2023-02-01T08:15:21;6.30;99.90
47514;DHT22;33951;51.988;5.910;2023-02-01T08:18:13;6.30;99.90
47514;DHT22;33951;51.988;5.910;2023-02-01T08:20:43;6.30;99.90
47514;DHT22;33951;51.988;5.910;2023-02-01T08:23:16;6.30;99.90
47514;DHT22;33951;51.988;5.910;2023-02-01T08:25:50;6.40;99.90
47514;DHT22;33951;51.988;5.910;2023-02-01T08:28:19;6.30;99.90
47514;DHT22;33951;51.988;5.910;2023-02-01T08:34:11;6.30;99.90
47514;DHT22;33951;51.988;5.910;2023-02-01T08:36:51;6.40;99.90
47514;DHT22;33951;51.988;5.910;2023-02-01T08:39:27;6.40;99.90
47514;DHT22;33951;51.988;5.910;2023-02-01T08:41:53;6.40;99.90
47514;DHT22;33951;51.988;5.910;2023-02-01T08:44:39;6.50;99.90
47514;DHT22;33951;51.988;5.910;2023-02-01T08:47:27;6.50;99.90
47514;DHT22;33951;51.988;5.910;2023-02-01T08:49:55;6.50;99.90
47514;DHT22;33951;51.988;5.910;2023-02-01T08:52:29;6.60;99.90
47514;DHT22;33951;51.988;5.910;2023-02-01T08:55:01;6.70;99.90
47514;DHT22;33951;51.988;5.910;2023-02-01T08:57:30;6.80;99.90
47514;DHT22;33951;51.988;5.910;2023-02-01T09:00:09;6.90;99.90
47514;DHT22;33951;51.988;5.910;2023-02-01T09:02:43;7.00;99.90
47514;DHT22;33951;51.988;5.910;2023-02-01T09:05:14;6.90;99.90
47514;DHT22;33951;51.988;5.910;2023-02-01T09:07:52;7.00;99.90
47514;DHT22;33951;51.988;5.910;2023-02-01T09:10:37;7.10;99.90
47514;DHT22;33951;51.988;5.910;2023-02-01T09:13:11;7.10;99.90
47514;DHT22;33951;51.988;5.910;2023-02-01T09:15:57;7.20;99.90
47514;DHT22;33951;51.988;5.910;2023-02-01T09:18:29;7.20;99.90
47514;DHT22;33951;51.988;5.910;2023-02-01T09:21:36;7.20;99.90
47514;DHT22;33951;51.988;5.910;2023-02-01T09:24:12;7.20;99.90
47514;DHT22;33951;51.988;5.910;2023-02-01T09:26:40;7.20;99.90
47514;DHT22;33951;51.988;5.910;2023-02-01T09:29:14;7.20;99.90
47514;DHT22;33951;51.988;5.910;2023-02-01T09:31:45;7.10;99.90
47514;DHT22;33951;51.988;5.910;2023-02-01T09:34:14;7.10;99.90
47514;DHT22;33951;51.988;5.910;2023-02-01T09:36:40;7.20;99.90
47514;DHT22;33951;51.988;5.910;2023-02-01T09:39:05;7.20;99.90
47514;DHT22;33951;51.988;5.910;2023-02-01T09:44:39;7.30;99.90
47514;DHT22;33951;51.988;5.910;2023-02-01T09:47:17;7.40;99.90
47514;DHT22;33951;51.988;5.910;2023-02-01T09:55:21;7.40;99.90
47514;DHT22;33951;51.988;5.910;2023-02-01T10:00:59;7.40;99.90
47514;DHT22;33951;51.988;5.910;2023-02-01T10:03:26;7.40;99.90
47514;DHT22;33951;51.988;5.910;2023-02-01T10:06:22;7.50;99.90
47514;DHT22;33951;51.988;5.910;2023-02-01T10:11:58;7.50;99.90
47514;DHT22;33951;51.988;5.910;2023-02-01T10:20:22;7.40;99.90
47514;DHT22;33951;51.988;5.910;2023-02-01T10:25:54;7.40;99.90
47514;DHT22;33951;51.988;5.910;2023-02-01T10:28:21;7.30;99.90
47514;DHT22;33951;51.988;5.910;2023-02-01T10:30:51;7.40;99.90
47514;DHT22;33951;51.988;5.910;2023-02-01T10:33:26;7.40;99.90
47514;DHT22;33951;51.988;5.910;2023-02-01T10:36:16;7.40;99.90
47514;DHT22;33951;51.988;5.910;2023-02-01T10:38:47;7.30;99.90
47514;DHT22;33951;51.988;5.910;2023-02-01T10:41:20;7.20;99.90
47514;DHT22;33951;51.988;5.910;2023-02-01T10:43:51;7.10;99.90
47514;DHT22;33951;51.988;5.910;2023-02-01T10:46:33;7.10;99.90
47514;DHT22;33951;51.988;5.910;2023-02-01T10:49:04;7.00;99.90
47514;DHT22;33951;51.988;5.910;2023-02-01T10:54:21;6.90;99.90
47514;DHT22;33951;51.988;5.910;2023-02-01T10:56:53;6.80;99.90
47514;DHT22;33951;51.988;5.910;2023-02-01T10:59:24;6.70;99.90
47514;DHT22;33951;51.988;5.910;2023-02-01T11:01:58;6.70;99.90
47514;DHT22;33951;51.988;5.910;2023-02-01T11:04:35;6.60;99.90
47514;DHT22;33951;51.988;5.910;2023-02-01T11:09:40;6.50;99.90
47514;DHT22;33951;51.988;5.910;2023-02-01T11:12:37;6.60;99.90
47514;DHT22;33951;51.988;5.910;2023-02-01T11:15:24;6.50;99.90
47514;DHT22;33951;51.988;5.910;2023-02-01T11:44:32;6.80;99.90
47514;DHT22;33951;51.988;5.910;2023-02-01T11:47:58;6.80;99.90
47514;DHT22;33951;51.988;5.910;2023-02-01T12:44:39;7.60;99.90
47514;DHT22;33951;51.988;5.910;2023-02-01T12:47:39;7.60;99.90
47514;DHT22;33951;51.988;5.910;2023-02-01T12:50:32;7.70;99.90
47514;DHT22;33951;51.988;5.910;2023-02-01T12:53:50;7.70;99.90
47514;DHT22;33951;51.988;5.910;2023-02-01T12:56:32;7.70;99.90
47514;DHT22;33951;51.988;5.910;2023-02-01T12:59:31;7.70;99.90
47514;DHT22;33951;51.988;5.910;2023-02-01T13:02:33;7.70;99.90
47514;DHT22;33951;51.988;5.910;2023-02-01T13:17:25;7.80;99.90
47514;DHT22;33951;51.988;5.910;2023-02-01T13:22:59;7.70;99.90
47514;DHT22;33951;51.988;5.910;2023-02-01T13:25:52;7.70;99.90
47514;DHT22;33951;51.988;5.910;2023-02-01T13:43:54;7.80;99.90
47514;DHT22;33951;51.988;5.910;2023-02-01T13:50:24;7.80;99.90
47514;DHT22;33951;51.988;5.910;2023-02-01T14:00:05;7.70;99.90
47514;DHT22;33951;51.988;5.910;2023-02-01T14:03:14;7.70;99.90
47514;DHT22;33951;51.988;5.910;2023-02-01T14:22:04;7.80;99.90
47514;DHT22;33951;51.988;5.910;2023-02-01T14:25:01;7.80;99.90
47514;DHT22;33951;51.988;5.910;2023-02-01T14:40:38;8.00;99.90
47514;DHT22;33951;51.988;5.910;2023-02-01T14:43:38;8.00;99.90
47514;DHT22;33951;51.988;5.910;2023-02-01T14:46:01;8.00;99.90
47514;DHT22;33951;51.988;5.910;2023-02-01T14:50:57;8.00;99.90
47514;DHT22;33951;51.988;5.910;2023-02-01T14:53:34;8.00;99.90
47514;DHT22;33951;51.988;5.910;2023-02-01T14:56:09;8.00;99.90
47514;DHT22;33951;51.988;5.910;2023-02-01T14:58:58;8.00;99.90
47514;DHT22;33951;51.988;5.910;2023-02-01T15:01:36;8.00;99.90
47514;DHT22;33951;51.988;5.910;2023-02-01T15:04:13;8.00;99.90
47514;DHT22;33951;51.988;5.910;2023-02-01T15:07:09;8.10;99.90
47514;DHT22;33951;51.988;5.910;2023-02-01T15:09:49;8.00;99.90
47514;DHT22;33951;51.988;5.910;2023-02-01T15:12:27;8.10;99.90
47514;DHT22;33951;51.988;5.910;2023-02-01T15:18:16;8.10;99.90
47514;DHT22;33951;51.988;5.910;2023-02-01T15:20:44;8.10;99.90
47514;DHT22;33951;51.988;5.910;2023-02-01T15:23:23;8.00;99.90
47514;DHT22;33951;51.988;5.910;2023-02-01T15:26:00;8.00;99.90
47514;DHT22;33951;51.988;5.910;2023-02-01T15:28:52;7.90;99.90
47514;DHT22;33951;51.988;5.910;2023-02-01T15:32:15;7.80;99.90
47514;DHT22;33951;51.988;5.910;2023-02-01T15:34:55;7.70;99.90
47514;DHT22;33951;51.988;5.910;2023-02-01T15:37:29;7.60;99.90
47514;DHT22;33951;51.988;5.910;2023-02-01T15:40:51;7.50;99.90
47514;DHT22;33951;51.988;5.910;2023-02-01T15:43:25;7.60;99.90
47514;DHT22;33951;51.988;5.910;2023-02-01T15:46:04;7.70;99.90
47514;DHT22;33951;51.988;5.910;2023-02-01T15:54:30;7.30;99.90
47514;DHT22;33951;51.988;5.910;2023-02-01T15:57:28;7.20;99.90
47514;DHT22;33951;51.988;5.910;2023-02-01T16:03:23;7.10;99.90
47514;DHT22;33951;51.988;5.910;2023-02-01T16:06:31;7.00;99.90
47514;DHT22;33951;51.988;5.910;2023-02-01T16:09:13;6.90;99.90
47514;DHT22;33951;51.988;5.910;2023-02-01T16:12:02;6.90;99.90
47514;DHT22;33951;51.988;5.910;2023-02-01T16:14:46;7.00;99.90
47514;DHT22;33951;51.988;5.910;2023-02-01T16:20:09;7.00;99.90
47514;DHT22;33951;51.988;5.910;2023-02-01T16:22:40;7.10;99.90
47514;DHT22;33951;51.988;5.910;2023-02-01T16:25:08;7.20;99.90
47514;DHT22;33951;51.988;5.910;2023-02-01T16:27:37;7.30;99.90
47514;DHT22;33951;51.988;5.910;2023-02-01T16:30:05;7.40;99.90
47514;DHT22;33951;51.988;5.910;2023-02-01T16:32:35;7.50;99.90
47514;DHT22;33951;51.988;5.910;2023-02-01T16:35:40;7.70;99.90
47514;DHT22;33951;51.988;5.910;2023-02-01T16:38:12;7.70;99.90
47514;DHT22;33951;51.988;5.910;2023-02-01T16:40:42;7.80;99.90
47514;DHT22;33951;51.988;5.910;2023-02-01T16:43:12;8.00;99.90
47514;DHT22;33951;51.988;5.910;2023-02-01T16:45:38;8.00;99.90
47514;DHT22;33951;51.988;5.910;2023-02-01T16:48:20;8.10;99.90
47514;DHT22;33951;51.988;5.910;2023-02-01T16:50:52;8.00;99.90
47514;DHT22;33951;51.988;5.910;2023-02-01T16:53:23;8.10;99.90
47514;DHT22;33951;51.988;5.910;2023-02-01T16:59:35;8.10;99.90
47514;DHT22;33951;51.988;5.910;2023-02-01T17:02:05;8.10;99.90
47514;DHT22;33951;51.988;5.910;2023-02-01T17:05:03;8.10;99.90
47514;DHT22;33951;51.988;5.910;2023-02-01T17:10:46;8.10;99.90
47514;DHT22;33951;51.988;5.910;2023-02-01T17:13:21;8.10;99.90
47514;DHT22;33951;51.988;5.910;2023-02-01T17:19:02;8.10;99.90
47514;DHT22;33951;51.988;5.910;2023-02-01T17:21:33;8.10;99.90
47514;DHT22;33951;51.988;5.910;2023-02-01T17:24:00;8.20;99.90
47514;DHT22;33951;51.988;5.910;2023-02-01T17:26:26;8.20;99.90
47514;DHT22;33951;51.988;5.910;2023-02-01T17:28:52;8.20;99.90
47514;DHT22;33951;51.988;5.910;2023-02-01T17:31:17;8.30;99.90
47514;DHT22;33951;51.988;5.910;2023-02-01T17:33:45;8.40;99.90
47514;DHT22;33951;51.988;5.910;2023-02-01T17:36:14;8.40;99.90
47514;DHT22;33951;51.988;5.910;2023-02-01T17:38:43;8.40;99.90
47514;DHT22;33951;51.988;5.910;2023-02-01T17:41:15;8.40;99.90
47514;DHT22;33951;51.988;5.910;2023-02-01T17:43:43;8.40;99.90
47514;DHT22;33951;51.988;5.910;2023-02-01T17:46:15;8.40;99.90
47514;DHT22;33951;51.988;5.910;2023-02-01T17:48:41;8.50;99.90
47514;DHT22;33951;51.988;5.910;2023-02-01T17:51:18;8.40;99.90
47514;DHT22;33951;51.988;5.910;2023-02-01T17:53:49;8.40;99.90
47514;DHT22;33951;51.988;5.910;2023-02-01T17:56:18;8.40;99.90
47514;DHT22;33951;51.988;5.910;2023-02-01T17:58:45;8.50;99.90
47514;DHT22;33951;51.988;5.910;2023-02-01T18:01:13;8.40;99.90
47514;DHT22;33951;51.988;5.910;2023-02-01T18:03:40;8.40;99.90
47514;DHT22;33951;51.988;5.910;2023-02-01T18:06:09;8.50;99.90
47514;DHT22;33951;51.988;5.910;2023-02-01T18:08:39;8.50;99.90
47514;DHT22;33951;51.988;5.910;2023-02-01T18:21:45;8.50;99.90
47514;DHT22;33951;51.988;5.910;2023-02-01T18:31:47;8.20;99.90
47514;DHT22;33951;51.988;5.910;2023-02-01T19:08:35;6.50;99.90
47514;DHT22;33951;51.988;5.910;2023-02-01T19:11:05;6.50;99.90
47514;DHT22;33951;51.988;5.910;2023-02-01T19:13:30;6.40;99.90
47514;DHT22;33951;51.988;5.910;2023-02-01T19:15:56;6.40;99.90
47514;DHT22;33951;51.988;5.910;2023-02-01T19:18:22;6.40;99.90
47514;DHT22;33951;51.988;5.910;2023-02-01T19:20:50;6.20;99.90
47514;DHT22;33951;51.988;5.910;2023-02-01T19:23:19;6.20;99.90
47514;DHT22;33951;51.988;5.910;2023-02-01T19:25:46;6.30;99.90
47514;DHT22;33951;51.988;5.910;2023-02-01T19:28:13;6.30;99.90
47514;DHT22;33951;51.988;5.910;2023-02-01T19:30:38;6.30;99.90
47514;DHT22;33951;51.988;5.910;2023-02-01T19:33:04;6.40;99.90
47514;DHT22;33951;51.988;5.910;2023-02-01T19:35:30;6.10;99.90
47514;DHT22;33951;51.988;5.910;2023-02-01T19:38:02;6.00;99.90
47514;DHT22;33951;51.988;5.910;2023-02-01T19:40:30;5.90;99.90
47514;DHT22;33951;51.988;5.910;2023-02-01T19:42:56;5.90;99.90
47514;DHT22;33951;51.988;5.910;2023-02-01T19:45:21;5.90;99.90
47514;DHT22;33951;51.988;5.910;2023-02-01T19:47:47;5.90;99.90
47514;DHT22;33951;51.988;5.910;2023-02-01T19:50:18;5.90;99.90
47514;DHT22;33951;51.988;5.910;2023-02-01T19:52:45;5.90;99.90
47514;DHT22;33951;51.988;5.910;2023-02-01T19:55:11;5.90;99.90
47514;DHT22;33951;51.988;5.910;2023-02-01T19:57:42;5.90;99.90
47514;DHT22;33951;51.988;5.910;2023-02-01T20:00:08;5.90;99.90
47514;DHT22;33951;51.988;5.910;2023-02-01T20:02:36;5.80;99.90
47514;DHT22;33951;51.988;5.910;2023-02-01T20:05:05;5.80;99.90
47514;DHT22;33951;51.988;5.910;2023-02-01T20:07:35;5.90;99.90
47514;DHT22;33951;51.988;5.910;2023-02-01T20:10:01;5.90;99.90
47514;DHT22;33951;51.988;5.910;2023-02-01T20:12:26;5.90;99.90
47514;DHT22;33951;51.988;5.910;2023-02-01T20:14:52;6.00;99.90
47514;DHT22;33951;51.988;5.910;2023-02-01T20:17:18;6.10;99.90
47514;DHT22;33951;51.988;5.910;2023-02-01T20:19:43;6.30;99.90
47514;DHT22;33951;51.988;5.910;2023-02-01T20:22:09;6.40;99.90
47514;DHT22;33951;51.988;5.910;2023-02-01T20:24:35;6.60;99.90
47514;DHT22;33951;51.988;5.910;2023-02-01T20:27:01;6.70;99.90
47514;DHT22;33951;51.988;5.910;2023-02-01T20:29:26;6.90;99.90
47514;DHT22;33951;51.988;5.910;2023-02-01T20:31:52;7.00;99.90
47514;DHT22;33951;51.988;5.910;2023-02-01T20:34:17;7.10;99.90
47514;DHT22;33951;51.988;5.910;2023-02-01T20:36:44;7.20;99.90
47514;DHT22;33951;51.988;5.910;2023-02-01T20:39:10;7.20;99.90
47514;DHT22;33951;51.988;5.910;2023-02-01T20:41:36;7.30;99.90
47514;DHT22;33951;51.988;5.910;2023-02-01T20:44:02;7.40;99.90
47514;DHT22;33951;51.988;5.910;2023-02-01T20:46:27;7.60;99.90
47514;DHT22;33951;51.988;5.910;2023-02-01T20:48:53;7.50;99.90
47514;DHT22;33951;51.988;5.910;2023-02-01T20:51:22;7.20;99.90
47514;DHT22;33951;51.988;5.910;2023-02-01T20:53:48;7.10;99.90
47514;DHT22;33951;51.988;5.910;2023-02-01T20:56:16;7.10;99.90
47514;DHT22;33951;51.988;5.910;2023-02-01T20:58:42;7.10;99.90
47514;DHT22;33951;51.988;5.910;2023-02-01T21:01:11;6.90;99.90
47514;DHT22;33951;51.988;5.910;2023-02-01T21:03:37;6.70;99.90
47514;DHT22;33951;51.988;5.910;2023-02-01T21:06:06;6.50;99.90
47514;DHT22;33951;51.988;5.910;2023-02-01T21:08:33;6.60;99.90
47514;DHT22;33951;51.988;5.910;2023-02-01T21:11:11;6.50;99.90
47514;DHT22;33951;51.988;5.910;2023-02-01T21:13:39;6.40;99.90
47514;DHT22;33951;51.988;5.910;2023-02-01T21:16:10;6.40;99.90
47514;DHT22;33951;51.988;5.910;2023-02-01T21:19:04;6.40;99.90
47514;DHT22;33951;51.988;5.910;2023-02-01T21:21:30;6.50;99.90
47514;DHT22;33951;51.988;5.910;2023-02-01T21:23:56;6.60;99.90
47514;DHT22;33951;51.988;5.910;2023-02-01T21:26:25;6.70;99.90
47514;DHT22;33951;51.988;5.910;2023-02-01T21:28:54;6.70;99.90
47514;DHT22;33951;51.988;5.910;2023-02-01T21:31:20;6.70;99.90
47514;DHT22;33951;51.988;5.910;2023-02-01T21:33:47;6.70;99.90
47514;DHT22;33951;51.988;5.910;2023-02-01T21:36:17;6.80;99.90
47514;DHT22;33951;51.988;5.910;2023-02-01T21:39:04;7.00;99.90
47514;DHT22;33951;51.988;5.910;2023-02-01T21:41:39;7.10;99.90
47514;DHT22;33951;51.988;5.910;2023-02-01T21:44:23;7.20;99.90
47514;DHT22;33951;51.988;5.910;2023-02-01T21:47:08;7.40;99.90
47514;DHT22;33951;51.988;5.910;2023-02-01T21:49:35;7.30;99.90
47514;DHT22;33951;51.988;5.910;2023-02-01T21:52:00;7.40;99.90
47514;DHT22;33951;51.988;5.910;2023-02-01T21:54:26;7.40;99.90
47514;DHT22;33951;51.988;5.910;2023-02-01T21:56:52;7.40;99.90
47514;DHT22;33951;51.988;5.910;2023-02-01T21:59:18;7.50;99.90
47514;DHT22;33951;51.988;5.910;2023-02-01T22:01:44;7.40;99.90
47514;DHT22;33951;51.988;5.910;2023-02-01T22:04:10;7.40;99.90
47514;DHT22;33951;51.988;5.910;2023-02-01T22:06:43;7.50;99.90
47514;DHT22;33951;51.988;5.910;2023-02-01T22:09:19;7.50;99.90
47514;DHT22;33951;51.988;5.910;2023-02-01T22:11:49;7.50;99.90
47514;DHT22;33951;51.988;5.910;2023-02-01T22:14:19;7.60;99.90
47514;DHT22;33951;51.988;5.910;2023-02-01T22:17:00;7.50;99.90
47514;DHT22;33951;51.988;5.910;2023-02-01T22:19:25;7.60;99.90
47514;DHT22;33951;51.988;5.910;2023-02-01T22:21:51;7.60;99.90
47514;DHT22;33951;51.988;5.910;2023-02-01T22:24:17;7.70;99.90
47514;DHT22;33951;51.988;5.910;2023-02-01T22:26:53;7.60;99.90
47514;DHT22;33951;51.988;5.910;2023-02-01T22:29:21;7.80;99.90
47514;DHT22;33951;51.988;5.910;2023-02-01T22:31:50;7.70;99.90
47514;DHT22;33951;51.988;5.910;2023-02-01T22:34:16;7.70;99.90
47514;DHT22;33951;51.988;5.910;2023-02-01T22:36:42;7.70;99.90
47514;DHT22;33951;51.988;5.910;2023-02-01T22:39:08;7.80;99.90
47514;DHT22;33951;51.988;5.910;2023-02-01T22:41:36;7.70;99.90
47514;DHT22;33951;51.988;5.910;2023-02-01T22:44:02;7.70;99.90
47514;DHT22;33951;51.988;5.910;2023-02-01T22:46:28;7.70;99.90
47514;DHT22;33951;51.988;5.910;2023-02-01T22:48:56;7.70;99.90
47514;DHT22;33951;51.988;5.910;2023-02-01T22:51:27;7.70;99.90
47514;DHT22;33951;51.988;5.910;2023-02-01T22:53:54;7.60;99.90
47514;DHT22;33951;51.988;5.910;2023-02-01T22:56:35;7.60;99.90
47514;DHT22;33951;51.988;5.910;2023-02-01T22:59:14;7.60;99.90
47514;DHT22;33951;51.988;5.910;2023-02-01T23:01:43;7.50;99.90
47514;DHT22;33951;51.988;5.910;2023-02-01T23:04:21;7.50;99.90
47514;DHT22;33951;51.988;5.910;2023-02-01T23:06:54;7.50;99.90
47514;DHT22;33951;51.988;5.910;2023-02-01T23:09:43;7.40;99.90
47514;DHT22;33951;51.988;5.910;2023-02-01T23:12:21;7.30;99.90
47514;DHT22;33951;51.988;5.910;2023-02-01T23:14:50;7.30;99.90
47514;DHT22;33951;51.988;5.910;2023-02-01T23:17:43;7.20;99.90
47514;DHT22;33951;51.988;5.910;2023-02-01T23:20:18;7.20;99.90
47514;DHT22;33951;51.988;5.910;2023-02-01T23:22:52;7.20;99.90
47514;DHT22;33951;51.988;5.910;2023-02-01T23:25:18;7.10;99.90
47514;DHT22;33951;51.988;5.910;2023-02-01T23:27:45;7.10;99.90
47514;DHT22;33951;51.988;5.910;2023-02-01T23:30:12;7.10;99.90
47514;DHT22;33951;51.988;5.910;2023-02-01T23:32:52;7.10;99.90
47514;DHT22;33951;51.988;5.910;2023-02-01T23:35:34;7.00;99.90
47514;DHT22;33951;51.988;5.910;2023-02-01T23:41:03;7.00;99.90
47514;DHT22;33951;51.988;5.910;2023-02-01T23:49:27;6.90;99.90
47514;DHT22;33951;51.988;5.910;2023-02-01T23:51:53;6.90;99.90
47514;DHT22;33951;51.988;5.910;2023-02-01T23:54:27;7.00;99.90
47514;DHT22;33951;51.988;5.910;2023-02-01T23:56:52;7.00;99.90
47514;DHT22;33951;51.988;5.910;2023-02-01T23:59:21;7.00;99.90
